Terminal Aerodrome Forecast
Issued by NWS

Home | Current Version | Previous Version | Text Only | Print | Product List | Glossary On
Versions: 1 2 3 4 5 6 7 8 9 10 11 12 13 14 15 16 17
287
FTUS44 KBMX 300520
TAFANB
TAF
KANB 300520Z 3006/0106 02009G15KT P6SM SCT080 OVC110
     FM300900 07005KT 6SM BR OVC070
      TEMPO 3009/3013 3SM BR
     FM301600 19007KT P6SM BKN150
     FM301900 19008KT P6SM VCSH SCT090 BKN250
     FM010100 VRB02KT P6SM VCSH BKN050=

USA.gov is the U.S. government's official web portal to all federal, state and local government web resources and services.